createdAt,value
2022-08-10T00:00:23.340Z,51.53
2022-08-10T00:02:26.036Z,51.64
2022-08-10T00:04:28.709Z,51.17
2022-08-10T00:06:31.364Z,51.51
2022-08-10T00:08:34.003Z,52.05
2022-08-10T00:10:39.099Z,52.13
2022-08-10T00:12:53.495Z,52.08
2022-08-10T00:14:57.456Z,52.34
2022-08-10T00:17:00.275Z,52.34
2022-08-10T00:19:02.901Z,52.82
2022-08-10T00:21:07.409Z,52.56
2022-08-10T00:23:10.071Z,52.72
2022-08-10T00:25:12.705Z,52.71
2022-08-10T00:27:52.094Z,52.84
2022-08-10T00:29:39.420Z,53.09
2022-08-10T00:31:58.690Z,53.11
2022-08-10T00:34:02.459Z,53.43
2022-08-10T00:36:05.405Z,53.40
2022-08-10T00:38:08.115Z,53.81
2022-08-10T00:40:12.512Z,53.76
2022-08-10T00:42:17.242Z,53.74
2022-08-10T00:44:19.960Z,54.13
2022-08-10T00:46:23.183Z,54.14
2022-08-10T00:48:28.064Z,54.38
2022-08-10T00:50:31.514Z,54.35
2022-08-10T00:52:35.760Z,54.21
2022-08-10T00:54:38.716Z,54.51
2022-08-10T00:57:16.223Z,54.84
2022-08-10T00:59:05.979Z,55.21
2022-08-10T01:02:10.473Z,55.25
2022-08-10T01:04:39.811Z,55.39
2022-08-10T01:06:02.842Z,55.36
2022-08-10T01:08:27.057Z,55.65
2022-08-10T01:10:39.451Z,55.99
2022-08-10T01:12:47.446Z,55.97
2022-08-10T01:14:57.093Z,56.11
2022-08-10T01:17:07.461Z,55.90
2022-08-10T01:19:22.359Z,56.12
2022-08-10T01:21:58.401Z,56.14
2022-08-10T01:24:29.417Z,56.24
2022-08-10T01:26:41.297Z,56.56
2022-08-10T01:28:57.495Z,56.74
2022-08-10T01:31:04.256Z,56.98
2022-08-10T01:33:11.528Z,56.83
2022-08-10T01:35:19.297Z,57.04
2022-08-10T01:37:27.856Z,56.97
2022-08-10T01:39:38.618Z,57.37
2022-08-10T01:41:46.282Z,57.19
2022-08-10T01:43:55.339Z,57.43
2022-08-10T01:46:00.727Z,57.71
2022-08-10T01:48:23.602Z,57.68
2022-08-10T01:50:30.982Z,57.80
2022-08-10T01:52:36.275Z,57.65
2022-08-10T01:54:40.829Z,58.04
2022-08-10T01:56:45.151Z,57.87
2022-08-10T01:58:52.059Z,57.82
2022-08-10T02:00:55.891Z,57.58
2022-08-10T02:03:01.503Z,58.30
2022-08-10T02:05:07.416Z,58.47
2022-08-10T02:07:14.996Z,58.62
2022-08-10T02:09:22.024Z,58.34
2022-08-10T02:11:26.100Z,58.50
2022-08-10T02:13:49.620Z,58.72
2022-08-10T02:16:02.295Z,58.55
2022-08-10T02:18:07.654Z,58.23
2022-08-10T02:20:15.080Z,58.57
2022-08-10T02:22:38.355Z,58.53
2022-08-10T02:24:43.971Z,58.56
2022-08-10T02:26:47.959Z,58.55
2022-08-10T02:28:53.823Z,58.31
2022-08-10T02:30:58.873Z,58.40
2022-08-10T02:33:03.104Z,58.32
2022-08-10T02:35:19.385Z,58.07
2022-08-10T02:37:28.905Z,58.63
2022-08-10T02:39:32.712Z,58.77
2022-08-10T02:45:14.470Z,58.65
2022-08-10T02:45:18.929Z,58.78
2022-08-10T02:46:38.885Z,59.04
2022-08-10T02:48:45.386Z,59.28
2022-08-10T02:50:56.326Z,58.77
2022-08-10T02:53:04.071Z,58.75
2022-08-10T02:55:17.829Z,58.74
2022-08-10T02:57:25.854Z,59.27
2022-08-10T02:59:39.567Z,59.35
2022-08-10T03:01:46.239Z,59.09
2022-08-10T03:03:57.125Z,59.37
2022-08-10T03:06:04.681Z,59.08
2022-08-10T03:08:11.298Z,59.35
2022-08-10T03:10:19.528Z,59.12
2022-08-10T03:12:38.303Z,59.27
2022-08-10T03:14:42.877Z,59.62
2022-08-10T03:16:47.447Z,59.40
2022-08-10T03:18:51.699Z,59.51
2022-08-10T03:20:56.719Z,59.96
2022-08-10T03:23:00.967Z,59.63
2022-08-10T03:25:05.846Z,60.05
2022-08-10T03:27:09.320Z,60.03
2022-08-10T03:29:12.111Z,60.25
2022-08-10T03:31:14.984Z,60.02
2022-08-10T03:33:18.790Z,60.28
2022-08-10T03:35:22.899Z,60.13
2022-08-10T03:37:26.637Z,60.52
2022-08-10T03:39:29.534Z,60.41
2022-08-10T03:41:37.769Z,59.70
2022-08-10T03:43:44.363Z,59.87
2022-08-10T03:45:56.003Z,60.00
2022-08-10T03:47:59.856Z,59.98
2022-08-10T03:50:28.872Z,59.94
2022-08-10T03:52:29.034Z,59.74
2022-08-10T03:54:31.818Z,59.67
2022-08-10T03:56:37.772Z,59.29
2022-08-10T03:58:40.609Z,59.90
2022-08-10T04:00:45.146Z,59.63
2022-08-10T04:02:48.813Z,59.80
2022-08-10T04:04:51.569Z,60.07
2022-08-10T04:06:56.007Z,60.16
2022-08-10T04:08:59.661Z,59.71
2022-08-10T04:11:02.316Z,59.77
2022-08-10T04:13:06.302Z,60.12
2022-08-10T04:15:09.851Z,60.26
2022-08-10T04:17:14.169Z,60.30
2022-08-10T04:19:18.930Z,60.28
2022-08-10T04:21:25.681Z,60.57
2022-08-10T04:23:32.680Z,60.73
2022-08-10T04:25:36.746Z,60.73
2022-08-10T04:27:39.671Z,60.95
2022-08-10T04:29:44.819Z,60.17
2022-08-10T04:31:48.466Z,59.70
2022-08-10T04:33:52.955Z,59.32
2022-08-10T04:35:57.868Z,59.50
2022-08-10T04:38:01.933Z,59.54
2022-08-10T04:40:06.215Z,59.38
2022-08-10T04:42:28.983Z,59.14
2022-08-10T04:44:31.951Z,58.69
2022-08-10T04:46:56.371Z,59.03
2022-08-10T04:49:01.645Z,59.14
2022-08-10T04:51:05.295Z,59.85
2022-08-10T04:53:07.999Z,59.18
2022-08-10T04:55:10.741Z,58.78
2022-08-10T04:57:13.972Z,59.32
2022-08-10T04:59:18.291Z,59.04
2022-08-10T05:01:24.783Z,58.74
2022-08-10T05:03:29.164Z,59.26
2022-08-10T05:05:31.919Z,59.08
2022-08-10T05:07:44.717Z,59.11
2022-08-10T05:10:00.955Z,59.58
2022-08-10T05:12:07.210Z,59.71
2022-08-10T05:14:09.884Z,58.92
2022-08-10T05:16:12.507Z,58.68
2022-08-10T05:18:35.752Z,58.53
2022-08-10T05:20:38.847Z,58.77
2022-08-10T05:22:43.183Z,58.46
2022-08-10T05:24:45.868Z,58.72
2022-08-10T05:27:00.524Z,58.78
2022-08-10T05:29:11.159Z,58.86
2022-08-10T05:31:15.619Z,58.25
2022-08-10T05:33:27.128Z,57.62
2022-08-10T05:35:51.931Z,57.84
2022-08-10T05:38:10.158Z,57.32
2022-08-10T05:40:16.667Z,57.70
2022-08-10T05:42:21.596Z,57.17
2022-08-10T05:44:26.058Z,57.27
2022-08-10T05:46:28.864Z,56.74
2022-08-10T05:48:41.657Z,56.92
2022-08-10T05:50:55.806Z,56.83
2022-08-10T05:53:02.570Z,56.22
2022-08-10T05:55:23.190Z,57.35
2022-08-10T05:57:25.892Z,56.83
2022-08-10T06:00:32.744Z,56.60
2022-08-10T06:02:33.231Z,56.70
2022-08-10T06:04:25.097Z,56.68
2022-08-10T06:06:33.418Z,56.16
2022-08-10T06:08:36.946Z,56.06
2022-08-10T06:12:23.572Z,56.10
2022-08-10T06:13:27.098Z,54.88
2022-08-10T06:15:51.801Z,54.54
2022-08-10T06:18:01.875Z,54.18
2022-08-10T06:20:05.885Z,52.64
2022-08-10T06:22:10.746Z,52.82
2022-08-10T06:24:17.269Z,51.80
2022-08-10T06:26:21.723Z,51.32
2022-08-10T06:28:26.686Z,50.02
2022-08-10T06:30:30.893Z,49.64
2022-08-10T06:32:33.869Z,49.08
2022-08-10T06:34:44.515Z,48.71
2022-08-10T06:36:48.155Z,49.28
2022-08-10T06:38:54.385Z,49.17
2022-08-10T06:41:03.654Z,48.78
2022-08-10T06:43:10.683Z,48.17
2022-08-10T06:45:17.752Z,47.76
2022-08-10T06:47:23.381Z,48.30
2022-08-10T06:49:26.479Z,47.62
2022-08-10T06:51:33.087Z,47.54
2022-08-10T06:53:53.547Z,46.53
2022-08-10T06:56:03.015Z,47.80
2022-08-10T06:58:07.659Z,47.34
2022-08-10T07:00:20.279Z,48.73
2022-08-10T07:02:30.039Z,47.53
2022-08-10T07:04:38.320Z,48.14
2022-08-10T07:06:45.310Z,46.94
2022-08-10T07:08:52.107Z,46.49
2022-08-10T07:10:56.897Z,45.79
2022-08-10T07:13:03.232Z,44.74
2022-08-10T07:15:09.835Z,45.22
2022-08-10T07:17:16.136Z,44.49
2022-08-10T07:19:21.057Z,44.84
2022-08-10T07:21:24.741Z,44.17
2022-08-10T07:23:58.619Z,43.69
2022-08-10T07:25:53.899Z,45.86
2022-08-10T07:28:01.569Z,45.71
2022-08-10T07:30:07.689Z,43.50
2022-08-10T07:32:13.098Z,44.61
2022-08-10T07:34:28.691Z,42.16
2022-08-10T07:36:33.558Z,43.30
2022-08-10T07:38:38.157Z,41.74
2022-08-10T07:40:43.299Z,42.66
2022-08-10T07:42:48.313Z,42.60
2022-08-10T07:44:52.192Z,42.02
2022-08-10T07:46:58.981Z,42.31
2022-08-10T07:49:15.522Z,43.72
2022-08-10T07:51:23.418Z,42.69
2022-08-10T07:53:28.870Z,42.22
2022-08-10T07:56:05.054Z,41.08
2022-08-10T07:57:58.995Z,43.75
2022-08-10T08:00:06.713Z,42.63
2022-08-10T08:02:19.374Z,40.64
2022-08-10T08:04:25.037Z,38.93
2022-08-10T08:06:29.918Z,39.28
2022-08-10T08:08:33.675Z,41.13
2022-08-10T08:10:39.097Z,42.62
2022-08-10T08:12:43.787Z,40.90
2022-08-10T08:14:50.493Z,39.74
2022-08-10T08:16:55.195Z,39.55
2022-08-10T08:24:04.585Z,39.33
2022-08-10T08:24:09.603Z,37.88
2022-08-10T08:26:15.481Z,37.41
2022-08-10T08:28:18.893Z,38.49
2022-08-10T08:30:27.628Z,39.95
2022-08-10T08:32:34.055Z,38.00
2022-08-10T08:34:41.899Z,38.57
2022-08-10T08:36:45.773Z,38.79
2022-08-10T08:38:49.611Z,38.17
2022-08-10T08:41:02.120Z,37.89
2022-08-10T08:43:31.951Z,37.51
2022-08-10T08:46:01.120Z,36.79
2022-08-10T08:48:45.244Z,37.19
2022-08-10T08:51:04.542Z,36.66
2022-08-10T08:53:22.939Z,36.74
2022-08-10T08:56:04.621Z,35.65
2022-08-10T08:58:15.466Z,36.66
2022-08-10T09:00:26.100Z,36.06
2022-08-10T09:02:55.213Z,35.30
2022-08-10T09:05:08.173Z,35.51
2022-08-10T09:08:01.153Z,34.34
2022-08-10T09:10:05.174Z,35.21
2022-08-10T09:12:20.873Z,35.53
2022-08-10T09:14:30.637Z,35.25
2022-08-10T09:16:46.869Z,35.65
2022-08-10T09:18:54.229Z,34.45
2022-08-10T09:21:02.231Z,34.35
2022-08-10T09:23:14.931Z,34.45
2022-08-10T09:25:19.769Z,33.75
2022-08-10T09:27:23.831Z,33.01
2022-08-10T09:29:28.813Z,33.76
2022-08-10T09:31:42.037Z,33.89
2022-08-10T09:36:27.002Z,33.00
2022-08-10T09:37:02.809Z,33.77
2022-08-10T09:40:46.298Z,32.74
2022-08-10T09:41:58.092Z,32.12
2022-08-10T09:44:12.520Z,33.53
2022-08-10T09:46:33.389Z,32.73
2022-08-10T09:48:46.541Z,33.05
2022-08-10T09:51:41.766Z,34.16
2022-08-10T09:53:34.491Z,33.22
2022-08-10T09:56:16.968Z,33.27
2022-08-10T09:58:23.395Z,31.86
2022-08-10T10:00:34.008Z,31.61
2022-08-10T10:02:43.215Z,31.33
2022-08-10T10:04:57.191Z,32.24
2022-08-10T10:07:02.169Z,32.31
2022-08-10T10:09:16.636Z,32.08
2022-08-10T10:11:25.628Z,32.20
2022-08-10T10:13:41.510Z,30.96
2022-08-10T10:16:09.542Z,32.09
2022-08-10T10:18:23.448Z,33.86
2022-08-10T10:20:34.125Z,32.11
2022-08-10T10:22:43.753Z,31.42
2022-08-10T10:24:51.904Z,30.88
2022-08-10T10:27:00.917Z,32.67
2022-08-10T10:29:37.525Z,32.96
2022-08-10T10:31:42.788Z,33.52
2022-08-10T10:33:55.459Z,33.14
2022-08-10T10:35:59.988Z,34.74
2022-08-10T10:38:05.590Z,34.65
2022-08-10T10:40:10.642Z,33.13
2022-08-10T10:42:44.856Z,33.71
2022-08-10T10:44:57.116Z,34.03
2022-08-10T10:47:12.794Z,34.46
2022-08-10T10:49:28.442Z,34.97
2022-08-10T10:51:38.528Z,35.67
2022-08-10T10:53:47.029Z,35.04
2022-08-10T10:56:14.551Z,35.77
2022-08-10T10:58:28.547Z,34.76
2022-08-10T11:00:48.157Z,35.14
2022-08-10T11:03:33.565Z,35.07
2022-08-10T11:05:50.994Z,34.69
2022-08-10T11:07:59.337Z,34.60
2022-08-10T11:10:31.462Z,33.91
2022-08-10T11:12:35.962Z,33.86
2022-08-10T11:14:53.342Z,33.37
2022-08-10T11:17:03.620Z,33.81
2022-08-10T11:19:15.897Z,33.77
2022-08-10T11:21:28.559Z,33.30
2022-08-10T11:23:37.511Z,33.35
2022-08-10T11:25:45.746Z,33.78
2022-08-10T11:27:56.585Z,33.63
2022-08-10T11:30:06.152Z,34.41
2022-08-10T11:32:21.051Z,34.35
2022-08-10T11:34:47.783Z,33.92
2022-08-10T11:37:03.923Z,33.75
2022-08-10T11:39:14.520Z,33.21
2022-08-10T11:42:09.117Z,33.64
2022-08-10T11:43:55.081Z,33.70
2022-08-10T11:46:27.575Z,34.17
2022-08-10T11:48:54.259Z,34.43
2022-08-10T11:51:01.277Z,34.61
2022-08-10T11:53:11.339Z,33.77
2022-08-10T11:55:18.460Z,33.71
2022-08-10T11:57:23.778Z,34.23
2022-08-10T11:59:48.706Z,33.87
2022-08-10T12:01:53.940Z,32.87
2022-08-10T12:03:58.196Z,33.29
2022-08-10T12:06:02.942Z,32.58
2022-08-10T12:08:54.898Z,32.75
2022-08-10T12:10:30.866Z,33.30
2022-08-10T12:12:38.216Z,33.08
2022-08-10T12:14:47.502Z,32.56
2022-08-10T12:16:58.326Z,32.98
2022-08-10T12:19:05.456Z,32.32
2022-08-10T12:21:21.035Z,32.82
2022-08-10T12:23:31.125Z,31.93
2022-08-10T12:25:58.039Z,33.24
2022-08-10T12:28:08.298Z,32.85
2022-08-10T12:30:16.014Z,32.57
2022-08-10T12:32:29.896Z,32.65
2022-08-10T12:34:38.805Z,32.24
2022-08-10T12:36:44.054Z,33.26
2022-08-10T12:38:53.072Z,33.15
2022-08-10T12:41:00.527Z,33.60
2022-08-10T12:44:05.240Z,33.26
2022-08-10T12:45:38.021Z,33.49
2022-08-10T12:47:51.880Z,33.54
2022-08-10T12:50:29.440Z,33.86
2022-08-10T12:52:30.251Z,33.16
2022-08-10T12:54:37.004Z,32.99
2022-08-10T12:56:44.699Z,32.64
2022-08-10T12:58:58.743Z,32.63
2022-08-10T13:01:16.096Z,33.34
2022-08-10T13:04:23.099Z,33.58
2022-08-10T13:06:02.686Z,32.93
2022-08-10T13:08:28.163Z,32.24
2022-08-10T13:10:31.234Z,32.61
2022-08-10T13:12:44.875Z,32.68
2022-08-10T13:14:51.756Z,32.03
2022-08-10T13:16:57.723Z,31.99
2022-08-10T13:19:04.192Z,31.76
2022-08-10T13:21:20.533Z,32.08
2022-08-10T13:23:29.154Z,32.76
2022-08-10T13:25:38.736Z,31.68
2022-08-10T13:28:00.632Z,32.09
2022-08-10T13:30:09.430Z,32.31
2022-08-10T13:32:13.507Z,31.75
2022-08-10T13:34:42.400Z,31.72
2022-08-10T13:36:50.600Z,32.13
2022-08-10T13:38:57.906Z,32.13
2022-08-10T13:41:01.361Z,32.35
2022-08-10T13:43:07.925Z,32.47
2022-08-10T13:45:14.394Z,32.33
2022-08-10T13:47:19.765Z,31.67
2022-08-10T13:49:24.175Z,32.03
2022-08-10T13:51:56.399Z,31.95
2022-08-10T13:53:58.769Z,32.29
2022-08-10T13:56:05.272Z,32.73
2022-08-10T13:58:08.720Z,32.56
2022-08-10T14:00:33.731Z,32.41
2022-08-10T14:02:39.813Z,32.18
2022-08-10T14:04:47.925Z,32.39
2022-08-10T14:06:54.057Z,32.09
2022-08-10T14:09:01.486Z,31.87
2022-08-10T14:11:11.797Z,31.73
2022-08-10T14:13:17.298Z,32.53
2022-08-10T14:15:27.392Z,31.97
2022-08-10T14:17:31.023Z,32.60
2022-08-10T14:19:43.413Z,32.25
2022-08-10T14:21:51.126Z,31.83
2022-08-10T14:23:54.041Z,31.90
2022-08-10T14:26:04.093Z,32.37
2022-08-10T14:28:08.389Z,32.67
2022-08-10T14:30:15.834Z,31.98
2022-08-10T14:32:22.077Z,32.00
2022-08-10T14:36:16.317Z,31.83
2022-08-10T14:36:58.583Z,31.46
2022-08-10T14:39:03.929Z,31.59
2022-08-10T14:42:01.253Z,32.49
2022-08-10T14:43:42.859Z,32.73
2022-08-10T14:45:48.622Z,32.23
2022-08-10T14:47:59.339Z,32.44
2022-08-10T14:50:05.370Z,31.99
2022-08-10T14:52:10.477Z,32.25
2022-08-10T14:54:15.901Z,32.36
2022-08-10T14:56:27.040Z,32.16
2022-08-10T14:58:32.887Z,32.22
2022-08-10T15:00:42.910Z,32.53
2022-08-10T15:02:56.330Z,32.02
2022-08-10T15:05:01.044Z,32.11
2022-08-10T15:07:12.273Z,31.68
2022-08-10T15:09:20.125Z,32.20
2022-08-10T15:12:13.200Z,32.09
2022-08-10T15:14:14.801Z,31.42
2022-08-10T15:16:13.513Z,31.61
2022-08-10T15:18:17.632Z,31.95
2022-08-10T15:20:22.781Z,31.83
2022-08-10T15:22:42.783Z,31.66
2022-08-10T15:25:06.740Z,31.92
2022-08-10T15:27:22.950Z,32.16
2022-08-10T15:29:27.470Z,32.44
2022-08-10T15:31:33.104Z,32.06
2022-08-10T15:34:04.420Z,32.42
2022-08-10T15:36:27.395Z,32.11
2022-08-10T15:38:34.913Z,32.12
2022-08-10T15:40:51.710Z,33.03
2022-08-10T15:43:00.273Z,32.10
2022-08-10T15:45:03.907Z,32.50
2022-08-10T15:47:10.636Z,32.35
2022-08-10T15:49:20.737Z,32.11
2022-08-10T15:51:33.813Z,31.85
2022-08-10T15:53:55.276Z,32.58
2022-08-10T15:56:13.330Z,32.44
2022-08-10T15:58:30.178Z,32.52
2022-08-10T16:00:50.243Z,32.88
2022-08-10T16:02:56.904Z,32.94
2022-08-10T16:05:06.332Z,33.13
2022-08-10T16:07:11.722Z,32.81
2022-08-10T16:10:22.991Z,32.33
2022-08-10T16:11:43.671Z,32.38
2022-08-10T16:13:59.373Z,32.77
2022-08-10T16:16:07.323Z,32.34
2022-08-10T16:18:12.459Z,31.84
2022-08-10T16:20:23.176Z,32.43
2022-08-10T16:22:34.035Z,32.57
2022-08-10T16:24:41.850Z,31.92
2022-08-10T16:26:51.371Z,32.54
2022-08-10T16:28:59.364Z,32.48
2022-08-10T16:31:05.658Z,32.49
2022-08-10T16:33:11.159Z,32.43
2022-08-10T16:35:18.591Z,32.89
2022-08-10T16:37:23.119Z,32.77
2022-08-10T16:39:58.916Z,32.92
2022-08-10T16:42:02.823Z,32.42
2022-08-10T16:44:11.353Z,32.81
2022-08-10T16:46:17.489Z,33.07
2022-08-10T16:48:50.044Z,32.85
2022-08-10T16:50:52.185Z,32.87
2022-08-10T16:52:57.311Z,33.51
2022-08-10T16:55:10.277Z,32.62
2022-08-10T16:57:30.757Z,32.80
2022-08-10T16:59:37.548Z,33.23
2022-08-10T17:01:42.110Z,33.20
2022-08-10T17:04:06.034Z,33.38
2022-08-10T17:06:18.705Z,33.29
2022-08-10T17:08:23.627Z,33.94
2022-08-10T17:10:30.690Z,33.66
2022-08-10T17:12:37.864Z,33.15
2022-08-10T17:14:43.253Z,33.68
2022-08-10T17:16:53.943Z,33.93
2022-08-10T17:18:58.335Z,33.89
2022-08-10T17:21:06.240Z,33.97
2022-08-10T17:23:12.064Z,33.68
2022-08-10T17:25:17.176Z,34.05
2022-08-10T17:28:03.970Z,34.10
2022-08-10T17:29:57.344Z,34.26
2022-08-10T17:32:09.470Z,34.27
2022-08-10T17:34:17.312Z,34.11
2022-08-10T17:36:21.279Z,34.45
2022-08-10T17:38:27.031Z,34.41
2022-08-10T17:40:32.866Z,34.43
2022-08-10T17:42:37.270Z,34.49
2022-08-10T17:44:42.059Z,34.70
2022-08-10T17:46:46.964Z,34.68
2022-08-10T17:48:51.057Z,34.48
2022-08-10T17:50:55.159Z,34.60
2022-08-10T17:53:00.574Z,34.96
2022-08-10T17:55:06.814Z,34.68
2022-08-10T17:57:13.358Z,35.36
2022-08-10T17:59:17.728Z,35.26
2022-08-10T18:01:41.239Z,35.42
2022-08-10T18:03:52.634Z,35.37
2022-08-10T18:05:57.297Z,35.39
2022-08-10T18:08:02.653Z,35.50
2022-08-10T18:10:08.623Z,35.47
2022-08-10T18:12:17.806Z,35.64
2022-08-10T18:14:23.125Z,35.92
2022-08-10T18:16:28.635Z,35.35
2022-08-10T18:18:33.396Z,35.62
2022-08-10T18:20:39.531Z,35.81
2022-08-10T18:22:45.817Z,36.06
2022-08-10T18:24:50.183Z,35.63
2022-08-10T18:26:55.076Z,36.06
2022-08-10T18:28:58.118Z,36.16
2022-08-10T18:31:02.443Z,36.40
2022-08-10T18:33:10.272Z,35.90
2022-08-10T18:35:14.075Z,36.59
2022-08-10T18:37:21.421Z,36.80
2022-08-10T18:39:28.648Z,36.97
2022-08-10T18:41:37.464Z,36.94
2022-08-10T18:44:06.897Z,37.07
2022-08-10T18:46:18.680Z,37.08
2022-08-10T18:48:22.739Z,37.42
2022-08-10T18:50:29.549Z,37.46
2022-08-10T18:52:35.758Z,37.77
2022-08-10T18:54:45.632Z,37.86
2022-08-10T18:56:56.705Z,37.90
2022-08-10T18:59:13.308Z,37.63
2022-08-10T19:01:33.556Z,38.34
2022-08-10T19:04:16.916Z,38.44
2022-08-10T19:06:37.915Z,38.35
2022-08-10T19:08:57.050Z,38.58
2022-08-10T19:11:04.674Z,39.30
2022-08-10T19:13:16.989Z,39.52
2022-08-10T19:15:28.041Z,39.22
2022-08-10T19:18:03.202Z,39.14
2022-08-10T19:20:11.748Z,38.90
2022-08-10T19:22:21.135Z,39.51
2022-08-10T19:24:28.764Z,39.54
2022-08-10T19:26:46.060Z,39.75
2022-08-10T19:28:59.931Z,39.58
2022-08-10T19:31:10.949Z,39.28
2022-08-10T19:33:25.983Z,39.50
2022-08-10T19:36:03.901Z,39.07
2022-08-10T19:38:16.665Z,39.21
2022-08-10T19:40:46.243Z,39.96
2022-08-10T19:42:55.966Z,40.11
2022-08-10T19:45:05.022Z,39.69
2022-08-10T19:47:13.332Z,40.34
2022-08-10T19:49:25.013Z,40.28
2022-08-10T19:51:34.541Z,40.83
2022-08-10T19:53:42.859Z,40.84
2022-08-10T19:55:54.878Z,40.47
2022-08-10T19:58:04.014Z,40.71
2022-08-10T20:00:18.992Z,40.76
2022-08-10T20:02:25.748Z,40.43
2022-08-10T20:04:33.087Z,40.63
2022-08-10T20:06:44.068Z,41.02
2022-08-10T20:08:54.181Z,40.92
2022-08-10T20:11:03.266Z,41.24
2022-08-10T20:13:14.854Z,40.90
2022-08-10T20:15:27.024Z,41.16
2022-08-10T20:17:51.423Z,41.40
2022-08-10T20:20:04.080Z,41.67
2022-08-10T20:22:10.126Z,41.66
2022-08-10T20:24:15.984Z,41.66
2022-08-10T20:26:24.046Z,41.58
2022-08-10T20:28:36.930Z,42.12
2022-08-10T20:30:45.869Z,42.20
2022-08-10T20:32:57.635Z,42.22
2022-08-10T20:35:08.259Z,42.59
2022-08-10T20:37:41.202Z,42.16
2022-08-10T20:39:49.652Z,42.73
2022-08-10T20:42:07.565Z,42.91
2022-08-10T20:44:20.673Z,42.76
2022-08-10T20:46:28.327Z,43.07
2022-08-10T20:48:37.346Z,42.65
2022-08-10T20:50:45.119Z,42.40
2022-08-10T20:52:50.608Z,42.50
2022-08-10T20:54:57.536Z,42.74
2022-08-10T20:57:55.082Z,42.38
2022-08-10T21:00:04.301Z,42.07
2022-08-10T21:02:27.959Z,42.16
2022-08-10T21:04:48.333Z,42.16
2022-08-10T21:07:43.928Z,42.72
2022-08-10T21:10:01.964Z,42.64
2022-08-10T21:12:33.526Z,42.38
2022-08-10T21:14:47.536Z,42.87
2022-08-10T21:17:12.871Z,43.13
2022-08-10T21:19:30.148Z,43.24
2022-08-10T21:21:58.966Z,43.21
2022-08-10T21:24:08.139Z,43.43
2022-08-10T21:26:17.910Z,43.26
2022-08-10T21:28:55.422Z,43.72
2022-08-10T21:31:16.200Z,43.66
2022-08-10T21:33:34.466Z,43.71
2022-08-10T21:35:42.554Z,43.74
2022-08-10T21:37:56.759Z,43.79
2022-08-10T21:40:34.669Z,43.78
2022-08-10T21:43:05.594Z,44.14
2022-08-10T21:45:58.444Z,44.10
2022-08-10T21:48:30.653Z,43.93
2022-08-10T21:50:58.083Z,44.08
2022-08-10T21:53:43.833Z,44.03
2022-08-10T21:56:25.045Z,44.38
2022-08-10T21:58:51.443Z,44.25
2022-08-10T22:01:17.383Z,44.52
2022-08-10T22:03:39.902Z,44.52
2022-08-10T22:06:05.869Z,44.88
2022-08-10T22:08:28.573Z,45.10
2022-08-10T22:10:49.941Z,45.42
2022-08-10T22:13:13.200Z,45.33
2022-08-10T22:16:03.948Z,45.14
2022-08-10T22:18:31.503Z,45.27
2022-08-10T22:20:57.307Z,45.93
2022-08-10T22:23:38.976Z,45.32
2022-08-10T22:26:14.373Z,45.72
2022-08-10T22:28:37.147Z,46.41
2022-08-10T22:33:53.577Z,45.44
2022-08-10T22:36:35.716Z,46.07
2022-08-10T22:40:11.700Z,46.07
2022-08-10T22:42:10.090Z,45.85
2022-08-10T22:44:37.081Z,45.73
2022-08-10T22:47:00.380Z,46.09
2022-08-10T22:49:02.543Z,46.50
2022-08-10T22:51:10.761Z,46.20
2022-08-10T22:53:16.919Z,46.16
2022-08-10T22:55:42.708Z,46.33
2022-08-10T22:58:04.322Z,46.04
2022-08-10T23:00:14.102Z,46.30
2022-08-10T23:02:34.927Z,46.27
2022-08-10T23:04:45.187Z,46.34
2022-08-10T23:06:57.281Z,46.06
2022-08-10T23:09:04.455Z,45.77
2022-08-10T23:11:09.487Z,46.10
2022-08-10T23:13:35.367Z,46.16
2022-08-10T23:15:59.701Z,46.22
2022-08-10T23:18:25.227Z,46.32
2022-08-10T23:20:29.063Z,46.24
2022-08-10T23:22:36.746Z,46.19
2022-08-10T23:24:44.203Z,46.26
2022-08-10T23:26:47.033Z,46.26
2022-08-10T23:29:04.262Z,46.27
2022-08-10T23:31:17.569Z,46.24
2022-08-10T23:33:42.496Z,46.14
2022-08-10T23:36:29.623Z,46.67
2022-08-10T23:38:14.865Z,46.44
2022-08-10T23:40:19.436Z,46.32
2022-08-10T23:42:24.199Z,46.25
2022-08-10T23:44:33.595Z,46.69
2022-08-10T23:46:39.658Z,46.61
2022-08-10T23:48:46.547Z,47.12
2022-08-10T23:50:58.360Z,46.66
2022-08-10T23:53:13.240Z,46.88
2022-08-10T23:55:23.362Z,47.35
2022-08-10T23:57:28.429Z,47.25
2022-08-10T23:59:33.116Z,47.10
